Time;durP1;ratioP1;P1;durP2;ratioP2;P2;SDS_P1;SDS_P2;PMS_P1;PMS_P2;Temp;Humidity;BMP_temperature;BMP_pressure;BME280_temperature;BME280_humidity;BME280_pressure;Samples;Min_cycle;Max_cycle;Signal;HPM_P1;HPM_P2
2020/12/31 00:02:23;;;;;;;9.93;3.28;;;11.50;99.90;;;;;;4839189;29;20062;-62
2020/12/31 00:04:50;;;;;;;13.13;3.80;;;11.40;99.90;;;;;;4830037;29;20059;-62
2020/12/31 00:07:21;;;;;;;16.33;4.20;;;11.50;99.90;;;;;;4805926;29;20047;-62
2020/12/31 00:09:49;;;;;;;11.43;3.65;;;11.50;99.90;;;;;;4807075;29;20050;-61
2020/12/31 00:12:18;;;;;;;12.32;3.22;;;11.50;99.90;;;;;;4811372;29;20046;-62
2020/12/31 00:14:45;;;;;;;14.18;2.50;;;11.50;99.90;;;;;;4827940;29;20138;-61
2020/12/31 00:17:16;;;;;;;11.10;3.67;;;11.50;99.90;;;;;;4817245;29;20051;-62
2020/12/31 00:19:45;;;;;;;13.70;3.53;;;11.50;99.90;;;;;;4802523;29;20047;-61
2020/12/31 00:22:18;;;;;;;13.10;3.47;;;11.40;99.90;;;;;;4794514;29;20064;-63
2020/12/31 00:24:46;;;;;;;9.55;3.47;;;11.40;99.90;;;;;;4823227;29;20046;-62
2020/12/31 00:27:15;;;;;;;6.25;2.25;;;11.30;99.90;;;;;;4809544;29;20054;-62
2020/12/31 00:29:44;;;;;;;14.00;3.67;;;11.30;99.90;;;;;;4823884;29;20141;-62
2020/12/31 00:32:11;;;;;;;8.27;1.77;;;11.30;99.90;;;;;;4824931;29;20058;-62
2020/12/31 00:34:39;;;;;;;9.32;3.00;;;11.20;99.90;;;;;;4823252;29;20132;-62
2020/12/31 00:37:10;;;;;;;17.35;2.42;;;11.20;99.90;;;;;;4806791;29;20078;-63
2020/12/31 00:39:38;;;;;;;8.30;2.53;;;11.20;99.90;;;;;;4835410;29;20063;-61
2020/12/31 00:42:06;;;;;;;8.38;2.28;;;11.20;99.90;;;;;;4805799;29;20063;-62
2020/12/31 00:44:35;;;;;;;14.45;2.25;;;11.20;99.90;;;;;;4833360;29;20099;-61
2020/12/31 00:47:03;;;;;;;6.32;1.92;;;11.20;99.90;;;;;;4805763;29;20062;-62
2020/12/31 00:49:30;;;;;;;13.55;4.18;;;11.20;99.90;;;;;;4805022;29;20050;-63
2020/12/31 00:52:03;;;;;;;10.07;3.03;;;11.20;99.90;;;;;;4804922;29;20074;-62
2020/12/31 00:54:30;;;;;;;8.57;2.30;;;11.20;99.90;;;;;;4809842;29;20061;-62
2020/12/31 00:56:58;;;;;;;5.85;2.10;;;11.20;99.90;;;;;;4823316;29;20054;-62
2020/12/31 00:59:26;;;;;;;10.35;2.83;;;11.20;99.90;;;;;;4823594;29;20085;-62
2020/12/31 01:01:54;;;;;;;16.02;3.60;;;11.20;99.90;;;;;;4808161;29;20058;-62
2020/12/31 01:04:21;;;;;;;10.48;2.28;;;11.20;99.90;;;;;;4821950;29;20046;-62
2020/12/31 01:06:52;;;;;;;9.48;2.75;;;11.30;99.90;;;;;;4806391;29;20058;-62
2020/12/31 01:09:19;;;;;;;9.40;2.30;;;11.20;99.90;;;;;;4822248;29;20062;-63
2020/12/31 01:11:55;;;;;;;6.80;1.98;;;11.20;99.90;;;;;;4823409;29;20054;-63
2020/12/31 01:14:23;;;;;;;6.65;1.65;;;11.20;99.90;;;;;;4822568;29;20058;-62
2020/12/31 01:16:51;;;;;;;10.65;1.80;;;11.20;99.90;;;;;;4823864;29;20102;-62
2020/12/31 01:19:19;;;;;;;6.13;1.75;;;11.20;99.90;;;;;;4822938;29;20422;-63
2020/12/31 01:21:46;;;;;;;7.55;1.92;;;11.20;99.90;;;;;;4824345;29;20059;-62
2020/12/31 01:24:17;;;;;;;6.88;1.42;;;11.20;99.90;;;;;;4822271;29;20444;-62
2020/12/31 01:26:44;;;;;;;6.43;1.15;;;11.20;99.90;;;;;;4805613;29;20082;-63
2020/12/31 01:29:12;;;;;;;16.40;1.88;;;11.10;99.90;;;;;;4806083;29;20504;-63
2020/12/31 01:31:40;;;;;;;9.70;1.08;;;11.10;99.90;;;;;;4806246;29;20062;-63
2020/12/31 01:34:08;;;;;;;5.05;1.48;;;11.10;99.90;;;;;;4805673;29;20058;-62
2020/12/31 01:36:35;;;;;;;11.05;2.00;;;11.10;99.90;;;;;;4822954;29;20459;-62
2020/12/31 01:39:03;;;;;;;6.45;1.65;;;11.10;99.90;;;;;;4824246;29;20068;-62
2020/12/31 01:41:31;;;;;;;6.60;1.85;;;11.00;99.90;;;;;;4822829;29;20054;-62
2020/12/31 01:44:06;;;;;;;3.58;1.55;;;11.10;99.90;;;;;;4824136;29;20233;-62
2020/12/31 01:46:38;;;;;;;9.00;1.50;;;11.00;99.90;;;;;;4805548;29;20095;-62
2020/12/31 01:49:08;;;;;;;2.88;1.10;;;11.00;99.90;;;;;;4805608;29;20078;-63
2020/12/31 01:51:41;;;;;;;9.27;1.83;;;11.00;99.90;;;;;;4805636;29;20130;-63
2020/12/31 01:54:11;;;;;;;3.78;0.80;;;11.00;99.90;;;;;;4805844;29;20078;-63
2020/12/31 01:56:42;;;;;;;9.35;0.90;;;11.00;99.90;;;;;;4805187;29;20058;-62
2020/12/31 01:59:14;;;;;;;4.22;0.88;;;11.00;99.90;;;;;;4803753;29;20055;-62
2020/12/31 02:01:42;;;;;;;6.70;1.80;;;11.00;99.90;;;;;;4804659;29;20062;-62
2020/12/31 02:04:10;;;;;;;4.68;0.90;;;11.00;99.90;;;;;;4835304;29;20360;-62
2020/12/31 02:06:42;;;;;;;7.88;1.95;;;11.00;99.90;;;;;;4817836;29;20446;-62
2020/12/31 02:09:11;;;;;;;8.02;2.35;;;11.00;99.90;;;;;;4807411;29;20061;-61
2020/12/31 02:11:39;;;;;;;4.80;1.30;;;11.00;99.90;;;;;;4816587;29;20138;-61
2020/12/31 02:14:07;;;;;;;4.95;0.88;;;10.90;99.90;;;;;;4818228;29;20058;-62
2020/12/31 02:16:39;;;;;;;5.40;1.13;;;10.90;99.90;;;;;;4806139;29;20070;-62
2020/12/31 02:19:13;;;;;;;4.75;0.90;;;10.90;99.90;;;;;;4819087;29;20528;-62
2020/12/31 02:21:51;;;;;;;4.22;1.20;;;11.00;99.90;;;;;;4804403;29;20054;-62
2020/12/31 02:24:19;;;;;;;3.78;0.80;;;11.00;99.90;;;;;;4805461;29;20058;-62
2020/12/31 02:26:50;;;;;;;5.80;0.77;;;11.00;99.90;;;;;;4804398;29;20063;-63
2020/12/31 02:29:18;;;;;;;2.80;0.90;;;11.10;99.90;;;;;;4818338;29;20203;-62
2020/12/31 02:31:47;;;;;;;4.15;0.52;;;11.00;99.90;;;;;;4821437;29;20619;-62
2020/12/31 02:34:16;;;;;;;3.38;0.57;;;11.00;99.90;;;;;;4826488;29;20061;-63
2020/12/31 02:36:44;;;;;;;7.40;1.95;;;11.00;99.90;;;;;;4825224;29;20050;-62
2020/12/31 02:39:14;;;;;;;7.95;0.80;;;11.00;99.90;;;;;;4816123;29;20067;-62
2020/12/31 02:41:44;;;;;;;9.05;0.85;;;10.90;99.90;;;;;;4807100;29;20057;-63
2020/12/31 02:44:15;;;;;;;4.70;0.73;;;11.00;99.90;;;;;;4806800;29;20096;-63
2020/12/31 02:46:42;;;;;;;3.83;0.93;;;11.00;99.90;;;;;;4807915;29;20063;-62
2020/12/31 02:49:10;;;;;;;2.40;0.70;;;11.00;99.90;;;;;;4810208;29;20054;-62
2020/12/31 02:51:37;;;;;;;2.83;0.50;;;11.00;99.90;;;;;;4808390;29;20066;-63
2020/12/31 02:54:05;;;;;;;3.50;0.50;;;11.00;99.90;;;;;;4807325;29;20508;-63
2020/12/31 02:56:32;;;;;;;2.90;0.93;;;11.10;99.90;;;;;;4807892;29;20472;-63
2020/12/31 02:59:00;;;;;;;4.18;1.10;;;11.10;99.90;;;;;;4817845;29;20150;-62
2020/12/31 03:01:28;;;;;;;5.35;1.25;;;11.20;99.90;;;;;;4826362;29;20062;-62
2020/12/31 03:03:55;;;;;;;5.40;1.05;;;11.20;99.90;;;;;;4825067;29;20050;-62
2020/12/31 03:06:23;;;;;;;9.63;0.80;;;11.10;99.90;;;;;;4824680;29;20051;-63
2020/12/31 03:08:54;;;;;;;4.50;0.82;;;11.20;99.90;;;;;;4819771;29;20066;-62
2020/12/31 03:11:33;;;;;;;5.90;1.45;;;11.20;99.90;;;;;;4820419;29;20412;-62
2020/12/31 03:14:02;;;;;;;7.68;1.42;;;11.20;99.90;;;;;;4808074;29;20058;-62
2020/12/31 03:16:29;;;;;;;3.40;1.48;;;11.20;99.90;;;;;;4807543;29;20127;-63
2020/12/31 03:18:57;;;;;;;3.17;0.47;;;11.30;99.90;;;;;;4816970;29;20050;-62
2020/12/31 03:21:25;;;;;;;8.65;0.93;;;11.30;99.90;;;;;;4825951;29;20054;-63
2020/12/31 03:23:52;;;;;;;4.25;0.95;;;11.20;99.90;;;;;;4824819;29;20492;-62
2020/12/31 03:26:20;;;;;;;2.30;0.90;;;11.20;99.90;;;;;;4813491;29;20201;-62
2020/12/31 03:28:48;;;;;;;7.38;0.55;;;11.10;99.90;;;;;;4831993;29;20108;-62
2020/12/31 03:31:15;;;;;;;4.30;1.05;;;11.10;99.90;;;;;;4806587;29;20146;-62
2020/12/31 03:33:43;;;;;;;4.18;0.75;;;11.10;99.90;;;;;;4807808;29;20050;-63
2020/12/31 03:36:16;;;;;;;0.80;0.20;;;11.10;99.90;;;;;;4806192;29;20093;-62
2020/12/31 03:38:44;;;;;;;6.85;0.38;;;11.20;99.90;;;;;;4814203;29;20091;-63
2020/12/31 03:41:14;;;;;;;1.15;0.30;;;11.20;99.90;;;;;;4825813;29;20114;-62
2020/12/31 03:43:45;;;;;;;6.07;0.50;;;11.20;99.90;;;;;;4825934;29;20118;-62
2020/12/31 03:46:15;;;;;;;2.45;0.35;;;11.30;99.90;;;;;;4823996;29;20141;-62
2020/12/31 03:48:50;;;;;;;1.33;0.40;;;11.20;99.90;;;;;;4818204;29;20104;-62
2020/12/31 03:51:17;;;;;;;5.47;0.38;;;11.20;99.90;;;;;;4806285;29;20710;-63
2020/12/31 03:53:45;;;;;;;11.70;2.42;;;11.20;99.90;;;;;;4821460;29;20062;-63
2020/12/31 03:56:13;;;;;;;8.60;1.63;;;11.10;99.90;;;;;;4807330;29;20522;-62
2020/12/31 03:58:40;;;;;;;2.67;0.30;;;11.10;99.90;;;;;;4812426;29;20525;-63
2020/12/31 04:01:08;;;;;;;2.83;0.30;;;11.20;99.90;;;;;;4825116;29;20058;-62
2020/12/31 04:03:35;;;;;;;6.53;0.60;;;11.20;99.90;;;;;;4839157;29;20232;-63
2020/12/31 04:06:04;;;;;;;1.92;0.40;;;11.20;99.90;;;;;;4824997;29;20069;-63
2020/12/31 04:08:33;;;;;;;2.28;0.22;;;11.30;99.90;;;;;;4801156;29;20051;-63
2020/12/31 04:11:01;;;;;;;6.75;0.30;;;11.30;99.90;;;;;;4825257;29;20507;-63
2020/12/31 04:13:28;;;;;;;4.97;0.30;;;11.30;99.90;;;;;;4824123;29;20051;-62
2020/12/31 04:15:56;;;;;;;2.60;0.82;;;11.40;99.90;;;;;;4824813;29;20616;-62
2020/12/31 04:18:23;;;;;;;2.00;0.50;;;11.50;99.90;;;;;;4822048;29;20067;-62
2020/12/31 04:20:51;;;;;;;3.53;0.20;;;11.40;99.90;;;;;;4805755;29;20173;-63
2020/12/31 04:23:21;;;;;;;1.48;0.50;;;11.50;99.90;;;;;;4824517;29;20058;-62
2020/12/31 04:25:49;;;;;;;2.72;0.47;;;11.50;99.90;;;;;;4824708;29;20497;-62
2020/12/31 04:28:17;;;;;;;5.45;0.85;;;11.50;99.90;;;;;;4822913;29;20570;-62
2020/12/31 04:30:45;;;;;;;8.48;0.60;;;11.40;99.90;;;;;;4806839;29;20046;-62
2020/12/31 04:33:14;;;;;;;4.70;0.40;;;11.50;99.90;;;;;;4806686;29;20150;-63
2020/12/31 04:35:43;;;;;;;7.93;0.70;;;11.40;99.90;;;;;;4835252;29;20070;-62
2020/12/31 04:38:10;;;;;;;7.95;2.05;;;11.40;99.90;;;;;;4806497;29;20063;-64
2020/12/31 04:40:47;;;;;;;4.63;0.40;;;11.30;99.90;;;;;;4824614;29;20054;-62
2020/12/31 04:43:16;;;;;;;6.47;1.13;;;11.30;99.90;;;;;;4823370;29;20059;-63
2020/12/31 04:45:44;;;;;;;1.88;0.50;;;11.30;99.90;;;;;;4821424;29;20058;-61
2020/12/31 04:48:27;;;;;;;6.50;0.65;;;11.20;99.90;;;;;;4824900;29;20087;-62
2020/12/31 04:50:58;;;;;;;2.40;0.47;;;11.20;99.90;;;;;;4824323;29;20529;-62
2020/12/31 04:53:29;;;;;;;5.05;0.40;;;11.20;99.90;;;;;;4825001;29;20066;-62
2020/12/31 04:56:01;;;;;;;2.70;0.98;;;11.20;99.90;;;;;;4813651;29;20074;-62
2020/12/31 04:58:29;;;;;;;12.05;0.98;;;11.20;99.90;;;;;;4805189;29;20043;-62
2020/12/31 05:00:57;;;;;;;4.70;1.15;;;11.20;99.90;;;;;;4805187;29;20051;-63
2020/12/31 05:03:30;;;;;;;5.47;0.95;;;11.20;99.90;;;;;;4805613;29;20111;-63
2020/12/31 05:06:03;;;;;;;3.53;0.30;;;11.20;99.90;;;;;;4805489;29;20055;-63
2020/12/31 05:08:30;;;;;;;2.55;0.82;;;11.20;99.90;;;;;;4818280;29;20055;-62
2020/12/31 05:10:58;;;;;;;6.93;2.60;;;11.20;99.90;;;;;;4809135;29;20051;-61
2020/12/31 05:13:27;;;;;;;4.80;0.65;;;11.20;99.90;;;;;;4804568;29;20054;-62
2020/12/31 05:15:58;;;;;;;5.43;0.57;;;11.10;99.90;;;;;;4805707;29;20103;-63
2020/12/31 05:18:29;;;;;;;7.88;0.75;;;11.00;99.90;;;;;;4806032;29;20078;-62
2020/12/31 05:21:02;;;;;;;9.50;1.50;;;11.00;99.90;;;;;;4833328;29;20427;-62
2020/12/31 05:23:30;;;;;;;2.97;0.40;;;10.90;99.90;;;;;;4803476;29;20051;-63
2020/12/31 05:25:58;;;;;;;4.30;0.65;;;10.90;99.90;;;;;;4813172;29;20046;-63
2020/12/31 05:28:31;;;;;;;3.63;0.45;;;11.00;99.90;;;;;;4823596;29;20066;-63
2020/12/31 05:31:03;;;;;;;7.95;0.60;;;11.00;99.90;;;;;;4823399;29;20503;-62
2020/12/31 05:33:36;;;;;;;5.90;0.60;;;10.90;99.90;;;;;;4823693;29;20541;-63
2020/12/31 05:36:20;;;;;;;5.13;0.45;;;11.00;99.90;;;;;;4814169;29;20055;-62
2020/12/31 05:39:02;;;;;;;5.30;0.40;;;11.00;99.90;;;;;;4805940;29;20097;-62
2020/12/31 05:41:33;;;;;;;4.28;0.40;;;11.10;99.90;;;;;;4805953;29;20055;-63
2020/12/31 05:44:11;;;;;;;6.53;1.42;;;11.10;99.90;;;;;;4805870;29;20645;-62
2020/12/31 05:46:41;;;;;;;22.65;1.75;;;11.10;99.90;;;;;;4816329;29;20061;-63
2020/12/31 05:49:10;;;;;;;3.97;1.65;;;11.20;99.90;;;;;;4822924;29;20054;-62
2020/12/31 05:51:39;;;;;;;5.68;1.67;;;11.20;99.90;;;;;;4822781;29;20392;-63
2020/12/31 05:54:26;;;;;;;2.22;1.15;;;11.20;99.90;;;;;;5069737;27;20365;-61
2020/12/31 05:57:00;;;;;;;6.07;0.75;;;11.20;99.90;;;;;;5069339;28;20053;-61
2020/12/31 05:59:35;;;;;;;5.45;1.00;;;11.30;99.90;;;;;;5068841;28;20052;-61
2020/12/31 06:02:03;;;;;;;8.77;1.23;;;11.30;99.90;;;;;;5070584;28;20061;-61
2020/12/31 06:04:46;;;;;;;2.75;0.63;;;11.30;99.90;;;;;;5069900;28;20057;-60
2020/12/31 06:07:32;;;;;;;3.40;0.45;;;11.30;99.90;;;;;;5053382;28;20072;-61
2020/12/31 06:10:07;;;;;;;4.18;0.43;;;11.30;99.90;;;;;;5050062;28;20060;-62
2020/12/31 06:12:59;;;;;;;10.07;1.80;;;11.30;99.90;;;;;;5050077;28;20053;-62
2020/12/31 06:15:32;;;;;;;7.22;0.70;;;11.30;99.90;;;;;;5050181;28;20127;-61
2020/12/31 06:18:05;;;;;;;5.07;0.88;;;11.20;99.90;;;;;;5069984;28;20127;-62
2020/12/31 06:20:36;;;;;;;5.43;0.52;;;11.20;99.90;;;;;;5070013;28;20052;-62
2020/12/31 06:23:07;;;;;;;15.70;1.70;;;11.20;99.90;;;;;;5068798;28;20049;-61
2020/12/31 06:25:46;;;;;;;4.57;0.77;;;11.20;99.90;;;;;;5066544;28;20056;-61
2020/12/31 06:28:13;;;;;;;7.03;2.00;;;11.30;99.90;;;;;;5049829;28;20606;-61
2020/12/31 06:30:49;;;;;;;16.65;5.00;;;11.30;99.90;;;;;;5047866;28;20099;-62
2020/12/31 06:33:21;;;;;;;14.07;2.03;;;11.40;99.90;;;;;;5049685;28;20045;-61
2020/12/31 06:36:03;;;;;;;8.05;1.98;;;11.40;99.90;;;;;;5057158;28;20052;-61
2020/12/31 06:38:35;;;;;;;7.55;1.05;;;11.40;99.90;;;;;;5056702;28;20045;-61
2020/12/31 06:41:26;;;;;;;3.28;0.73;;;11.50;99.90;;;;;;5058199;28;20504;-61
2020/12/31 06:44:06;;;;;;;2.90;0.82;;;11.50;99.90;;;;;;5049439;28;20050;-61
2020/12/31 06:46:45;;;;;;;5.53;1.13;;;11.60;99.90;;;;;;5057948;28;20057;-62
2020/12/31 06:49:15;;;;;;;8.50;1.40;;;11.70;99.90;;;;;;5069134;28;20049;-61
2020/12/31 06:51:44;;;;;;;6.55;1.48;;;11.80;99.90;;;;;;5069163;28;20052;-60
2020/12/31 06:54:12;;;;;;;7.15;2.10;;;11.90;99.90;;;;;;5068935;28;20053;-60
2020/12/31 06:56:50;;;;;;;5.72;1.58;;;12.00;99.90;;;;;;5057677;28;20045;-61
2020/12/31 06:59:40;;;;;;;8.57;2.20;;;11.90;99.90;;;;;;5058437;28;20045;-60
2020/12/31 07:02:13;;;;;;;6.57;1.50;;;12.00;99.90;;;;;;5064391;28;20448;-62
2020/12/31 07:04:41;;;;;;;9.02;1.42;;;12.00;99.90;;;;;;5040952;28;20049;-61
2020/12/31 07:07:21;;;;;;;7.68;1.48;;;12.00;99.90;;;;;;5048955;28;20563;-61
2020/12/31 07:10:04;;;;;;;2.95;0.73;;;12.10;99.90;;;;;;5055814;28;20045;-61
2020/12/31 07:12:38;;;;;;;5.95;2.55;;;12.10;99.90;;;;;;5054359;28;20049;-62
2020/12/31 07:15:07;;;;;;;4.47;0.75;;;12.20;99.90;;;;;;5055201;28;20045;-61
2020/12/31 07:17:41;;;;;;;3.72;1.02;;;12.20;99.90;;;;;;5054554;28;20128;-60
2020/12/31 07:20:11;;;;;;;2.85;0.57;;;12.10;99.90;;;;;;5055230;28;20056;-61
2020/12/31 07:22:39;;;;;;;3.10;0.60;;;12.10;99.90;;;;;;5055655;28;20131;-61
2020/12/31 07:25:11;;;;;;;3.03;0.63;;;12.00;99.90;;;;;;5055015;28;20052;-61
2020/12/31 07:27:43;;;;;;;6.90;1.48;;;12.00;99.90;;;;;;5036744;28;20084;-62
2020/12/31 07:30:15;;;;;;;2.55;0.77;;;12.00;99.90;;;;;;5033941;28;20068;-61
2020/12/31 07:32:55;;;;;;;3.47;0.80;;;12.00;99.90;;;;;;5035303;28;20049;-62
2020/12/31 07:35:23;;;;;;;7.05;1.95;;;12.20;99.90;;;;;;5034856;28;20049;-61
2020/12/31 07:38:02;;;;;;;14.60;5.70;;;12.30;99.90;;;;;;5035996;28;20390;-62
2020/12/31 07:40:52;;;;;;;2.67;0.85;;;12.40;99.90;;;;;;5034179;28;20047;-62
2020/12/31 07:43:27;;;;;;;2.33;0.57;;;12.50;99.90;;;;;;5033954;28;20049;-61
2020/12/31 07:45:58;;;;;;;1.70;0.52;;;12.60;99.90;;;;;;5036300;28;20107;-61
2020/12/31 07:48:27;;;;;;;1.95;0.40;;;12.70;99.90;;;;;;5054969;28;20060;-62
2020/12/31 07:50:57;;;;;;;3.38;0.35;;;12.80;99.90;;;;;;5054569;28;20049;-62
2020/12/31 07:53:29;;;;;;;27.45;2.80;;;13.00;99.90;;;;;;5053572;28;20060;-61
2020/12/31 07:56:00;;;;;;;7.18;0.65;;;13.20;99.90;;;;;;5051921;28;20053;-62
2020/12/31 07:58:29;;;;;;;6.50;1.85;;;13.30;99.90;;;;;;5045187;28;20056;-62
2020/12/31 08:00:59;;;;;;;3.38;1.40;;;13.50;99.90;;;;;;5054382;28;20041;-62
2020/12/31 08:03:27;;;;;;;7.20;1.30;;;13.60;99.90;;;;;;5049559;28;20061;-62
2020/12/31 08:06:03;;;;;;;7.00;2.25;;;13.70;99.90;;;;;;5046213;28;20155;-62
2020/12/31 08:08:31;;;;;;;8.10;2.15;;;13.80;99.90;;;;;;5044260;28;20061;-61
2020/12/31 08:11:08;;;;;;;4.22;1.63;;;13.90;99.90;;;;;;5039316;28;20049;-61
2020/12/31 08:13:36;;;;;;;6.45;0.80;;;14.00;99.90;;;;;;5048368;28;20065;-62
2020/12/31 08:16:05;;;;;;;27.50;13.23;;;14.00;99.90;;;;;;5043665;28;20119;-62
2020/12/31 08:18:34;;;;;;;27.67;10.93;;;14.00;99.90;;;;;;5048184;28;20045;-62
2020/12/31 08:21:05;;;;;;;24.25;4.90;;;14.10;99.90;;;;;;5045855;28;20041;-63
2020/12/31 08:23:45;;;;;;;10.40;4.28;;;14.10;99.90;;;;;;5051470;28;20057;-63
2020/12/31 08:26:15;;;;;;;5.15;2.08;;;14.10;99.90;;;;;;5032495;28;20111;-62
2020/12/31 08:28:44;;;;;;;6.85;2.25;;;14.20;99.90;;;;;;5033940;28;20049;-62
2020/12/31 08:31:16;;;;;;;85.32;50.40;;;14.20;99.90;;;;;;5034438;28;20061;-62
2020/12/31 08:33:44;;;;;;;26.27;18.10;;;14.20;99.90;;;;;;5041509;28;20492;-61
2020/12/31 08:36:24;;;;;;;28.58;15.13;;;14.30;99.90;;;;;;5035131;28;20420;-62
2020/12/31 08:38:54;;;;;;;10.65;6.10;;;14.30;99.90;;;;;;5042112;28;20141;-61
2020/12/31 08:41:22;;;;;;;10.07;6.88;;;14.20;99.90;;;;;;5040098;28;20049;-62
2020/12/31 08:43:55;;;;;;;18.20;7.50;;;14.20;99.90;;;;;;5043348;28;20400;-61
2020/12/31 08:46:23;;;;;;;15.73;8.30;;;14.30;99.90;;;;;;5048967;28;20042;-61
2020/12/31 08:48:55;;;;;;;8.68;3.92;;;14.40;99.90;;;;;;5040843;28;20056;-61
2020/12/31 08:51:28;;;;;;;20.45;10.95;;;14.30;99.90;;;;;;5043684;28;20099;-62
2020/12/31 08:53:59;;;;;;;13.30;6.53;;;14.30;99.90;;;;;;5033578;28;20077;-61
2020/12/31 08:56:28;;;;;;;4.75;2.33;;;14.50;99.90;;;;;;5032191;28;20057;-62
2020/12/31 08:59:14;;;;;;;2.10;1.08;;;14.70;99.90;;;;;;5043801;28;20051;-62
2020/12/31 09:01:43;;;;;;;3.80;0.70;;;14.60;99.90;;;;;;5051606;28;20162;-62
2020/12/31 09:04:16;;;;;;;6.22;1.02;;;14.50;99.90;;;;;;5044418;28;20298;-62
2020/12/31 09:06:45;;;;;;;9.98;0.50;;;14.40;99.90;;;;;;5053144;28;20098;-62
2020/12/31 09:09:19;;;;;;;7.15;0.60;;;14.40;99.90;;;;;;5046932;28;20049;-62
2020/12/31 09:12:01;;;;;;;1.58;0.60;;;14.40;99.90;;;;;;5053467;28;20128;-62
2020/12/31 09:14:31;;;;;;;2.45;0.90;;;14.60;99.90;;;;;;5051774;28;20049;-59
2020/12/31 09:16:59;;;;;;;2.17;0.82;;;14.50;99.90;;;;;;5044738;28;20045;-62
2020/12/31 09:19:31;;;;;;;4.55;0.75;;;14.50;99.90;;;;;;5035641;28;20048;-63
2020/12/31 09:21:58;;;;;;;4.00;1.55;;;14.60;99.90;;;;;;5042088;28;20060;-62
2020/12/31 09:24:26;;;;;;;3.85;1.70;;;14.70;99.90;;;;;;5032163;28;20107;-61
2020/12/31 09:26:58;;;;;;;9.25;2.30;;;14.70;99.90;;;;;;5040661;28;20053;-62
2020/12/31 09:29:29;;;;;;;3.40;1.70;;;14.80;99.90;;;;;;5041340;28;20107;-62
2020/12/31 09:32:00;;;;;;;5.30;1.75;;;14.80;99.90;;;;;;5041082;28;20439;-61
2020/12/31 09:34:28;;;;;;;4.88;2.40;;;15.00;99.90;;;;;;5032708;28;20111;-62
2020/12/31 09:37:04;;;;;;;8.07;2.65;;;15.00;99.90;;;;;;5037463;28;20055;-62
2020/12/31 09:39:32;;;;;;;6.75;0.63;;;15.10;99.90;;;;;;5045781;28;20048;-62
2020/12/31 09:41:59;;;;;;;5.30;2.28;;;15.10;99.90;;;;;;5070902;28;20562;-62
2020/12/31 09:44:27;;;;;;;7.38;1.95;;;15.10;99.90;;;;;;5071655;28;20037;-62
2020/12/31 09:46:54;;;;;;;3.42;1.45;;;15.30;99.90;;;;;;5070954;28;20057;-62
2020/12/31 09:49:22;;;;;;;4.78;1.83;;;15.30;99.90;;;;;;5053964;28;20056;-62
2020/12/31 09:51:52;;;;;;;6.05;3.92;;;15.30;99.90;;;;;;5050637;28;20527;-62
2020/12/31 09:54:23;;;;;;;4.97;1.75;;;15.40;99.90;;;;;;5052726;28;20437;-62
2020/12/31 09:56:52;;;;;;;3.17;1.00;;;15.40;99.90;;;;;;5052414;28;20052;-62
2020/12/31 09:59:20;;;;;;;1.58;0.80;;;15.40;99.90;;;;;;5051037;28;20052;-62
2020/12/31 10:01:51;;;;;;;1.40;0.40;;;15.50;99.90;;;;;;5052356;28;20049;-63
2020/12/31 10:04:18;;;;;;;5.20;1.33;;;15.60;99.90;;;;;;5051561;28;20456;-61
2020/12/31 10:06:46;;;;;;;3.42;1.27;;;15.70;99.90;;;;;;5039261;28;20057;-62
2020/12/31 10:09:16;;;;;;;6.07;0.50;;;15.70;99.90;;;;;;5042665;28;20120;-62
2020/12/31 10:11:48;;;;;;;3.90;0.30;;;15.70;99.90;;;;;;5034821;28;20056;-63
2020/12/31 10:14:16;;;;;;;6.88;0.70;;;15.80;99.90;;;;;;5032855;28;20046;-63
2020/12/31 10:16:45;;;;;;;7.22;0.80;;;16.00;99.90;;;;;;5031263;28;20099;-62
2020/12/31 10:19:13;;;;;;;3.15;1.08;;;16.00;99.90;;;;;;5041754;28;20049;-61
2020/12/31 10:21:41;;;;;;;7.32;0.80;;;16.10;99.90;;;;;;5038777;28;20060;-62
2020/12/31 10:24:08;;;;;;;11.25;1.77;;;15.80;99.90;;;;;;5032487;28;20080;-62
2020/12/31 10:26:36;;;;;;;6.72;1.60;;;15.90;99.90;;;;;;5031294;28;20045;-62
2020/12/31 10:29:03;;;;;;;3.72;0.68;;;15.90;99.90;;;;;;5032781;28;20045;-62
2020/12/31 10:31:31;;;;;;;4.93;1.02;;;15.90;99.90;;;;;;5024481;28;20492;-62
2020/12/31 10:33:59;;;;;;;4.63;0.80;;;15.70;99.90;;;;;;5032451;28;20049;-62
2020/12/31 10:36:26;;;;;;;2.33;0.60;;;15.70;99.90;;;;;;5032119;28;20092;-62
2020/12/31 10:38:54;;;;;;;2.83;0.75;;;15.60;99.90;;;;;;5038215;28;20041;-62
2020/12/31 10:41:24;;;;;;;7.55;1.92;;;15.60;99.90;;;;;;5056332;28;20045;-62
2020/12/31 10:43:54;;;;;;;5.13;0.70;;;15.60;99.90;;;;;;5054950;28;20059;-62
2020/12/31 10:46:26;;;;;;;13.95;1.50;;;15.50;99.90;;;;;;5054556;28;20500;-62
2020/12/31 10:48:54;;;;;;;4.00;0.77;;;15.50;99.90;;;;;;5050227;28;20051;-62
2020/12/31 10:51:22;;;;;;;2.28;0.43;;;15.60;99.50;;;;;;5034929;28;20068;-62
2020/12/31 10:53:49;;;;;;;7.07;1.55;;;15.50;99.70;;;;;;5034561;28;20140;-62
2020/12/31 10:56:21;;;;;;;4.13;0.98;;;15.50;99.70;;;;;;5035504;28;20148;-62
2020/12/31 10:58:48;;;;;;;8.25;1.80;;;15.60;99.10;;;;;;5040355;28;20051;-62
2020/12/31 11:01:16;;;;;;;7.03;0.82;;;15.70;99.90;;;;;;5055537;28;20053;-62
2020/12/31 11:03:44;;;;;;;6.00;0.90;;;16.00;99.90;;;;;;5055812;28;20060;-62
2020/12/31 11:06:19;;;;;;;3.40;1.00;;;16.20;99.90;;;;;;5055269;28;20133;-62
2020/12/31 11:08:47;;;;;;;;;;;16.50;99.30;;;;;;5052554;28;20060;-62
2020/12/31 11:11:20;;;;;;;5.88;0.90;;;16.60;99.20;;;;;;5036209;28;19928;-62
2020/12/31 11:13:48;;;;;;;5.38;0.80;;;16.50;99.00;;;;;;5035549;28;20060;-62
2020/12/31 11:16:17;;;;;;;6.03;0.90;;;16.60;98.90;;;;;;5053547;28;20080;-61
2020/12/31 11:18:45;;;;;;;10.23;2.28;;;16.60;98.90;;;;;;5051665;28;20053;-63
2020/12/31 11:21:14;;;;;;;13.65;5.97;;;16.30;98.50;;;;;;5035575;28;20061;-62
2020/12/31 11:23:41;;;;;;;10.88;4.80;;;16.30;98.50;;;;;;5051684;28;20067;-62
2020/12/31 11:26:15;;;;;;;27.83;14.18;;;16.30;98.20;;;;;;5054245;28;20532;-63
2020/12/31 11:28:47;;;;;;;16.15;8.15;;;16.30;98.20;;;;;;5039149;28;20053;-62
2020/12/31 11:31:15;;;;;;;6.25;2.47;;;16.10;97.60;;;;;;5035421;28;20050;-62
2020/12/31 11:33:44;;;;;;;8.15;3.00;;;16.10;97.30;;;;;;5035318;28;20041;-62
2020/12/31 11:36:12;;;;;;;6.07;2.92;;;16.00;97.10;;;;;;5037644;28;20056;-61
2020/12/31 11:38:40;;;;;;;5.65;2.05;;;16.10;97.50;;;;;;5036085;28;20132;-62
2020/12/31 11:41:08;;;;;;;8.77;2.03;;;16.10;97.40;;;;;;5050661;28;20055;-62
2020/12/31 11:43:36;;;;;;;5.05;1.88;;;16.10;97.60;;;;;;5055062;28;20110;-62
2020/12/31 11:46:07;;;;;;;6.35;0.80;;;16.00;97.30;;;;;;5039392;28;20046;-62
2020/12/31 11:48:36;;;;;;;6.95;1.73;;;16.10;97.70;;;;;;5046396;28;20501;-63
2020/12/31 11:51:07;;;;;;;9.32;2.28;;;16.00;97.90;;;;;;5038074;28;20075;-63
2020/12/31 11:53:35;;;;;;;6.40;1.55;;;16.10;97.90;;;;;;5035684;28;20056;-63
2020/12/31 11:56:04;;;;;;;14.20;2.78;;;15.90;97.10;;;;;;5042726;28;20044;-62
2020/12/31 11:58:31;;;;;;;5.35;2.03;;;15.80;97.30;;;;;;5048831;28;20053;-64
2020/12/31 12:00:59;;;;;;;9.38;2.65;;;15.70;97.20;;;;;;5049256;28;20103;-62
2020/12/31 12:03:27;;;;;;;7.25;3.17;;;15.60;97.30;;;;;;5053622;28;20106;-62
2020/12/31 12:05:55;;;;;;;6.57;1.88;;;15.70;97.90;;;;;;5051288;28;20499;-62
2020/12/31 12:08:28;;;;;;;7.85;2.08;;;15.60;98.20;;;;;;5052745;28;20500;-61
2020/12/31 12:10:56;;;;;;;9.00;1.67;;;15.60;97.10;;;;;;5054124;28;20044;-63
2020/12/31 12:13:24;;;;;;;7.95;1.67;;;15.60;97.00;;;;;;5053998;28;20045;-60
2020/12/31 12:15:52;;;;;;;6.68;1.30;;;15.30;96.10;;;;;;5053782;28;20413;-62
2020/12/31 12:18:19;;;;;;;9.45;1.50;;;15.30;96.90;;;;;;5053699;28;20045;-61
2020/12/31 12:20:50;;;;;;;5.35;1.48;;;15.20;97.70;;;;;;5049889;28;20042;-63
2020/12/31 12:23:19;;;;;;;9.10;1.85;;;15.10;97.90;;;;;;5041469;28;20045;-62
2020/12/31 12:25:47;;;;;;;13.93;1.90;;;15.20;98.00;;;;;;5036018;28;20409;-62
2020/12/31 12:28:14;;;;;;;8.93;2.80;;;15.30;97.90;;;;;;5041089;28;20125;-60
2020/12/31 12:30:42;;;;;;;7.13;1.48;;;15.40;98.40;;;;;;5069815;28;20504;-63
2020/12/31 12:33:10;;;;;;;3.47;1.33;;;15.40;98.70;;;;;;5070069;28;20463;-63
2020/12/31 12:35:37;;;;;;;4.10;1.63;;;15.30;98.90;;;;;;5071282;28;20134;-63
2020/12/31 12:38:07;;;;;;;8.05;1.20;;;15.10;98.80;;;;;;5064054;28;20037;-64
2020/12/31 12:40:35;;;;;;;8.50;3.47;;;14.80;99.10;;;;;;5048734;28;20056;-63
2020/12/31 12:43:03;;;;;;;15.38;7.18;;;14.90;99.70;;;;;;5032290;28;20072;-63
2020/12/31 12:45:30;;;;;;;14.85;5.30;;;15.10;99.70;;;;;;5032362;28;20080;-63
2020/12/31 12:47:58;;;;;;;5.40;2.10;;;15.20;99.20;;;;;;5038063;28;20447;-62
2020/12/31 12:50:25;;;;;;;18.95;3.05;;;15.30;99.40;;;;;;5053425;28;20057;-62
2020/12/31 12:52:54;;;;;;;10.48;4.22;;;15.20;99.10;;;;;;5047724;28;20058;-63
2020/12/31 12:55:21;;;;;;;20.85;10.27;;;15.20;99.00;;;;;;5051458;28;20144;-63
2020/12/31 12:57:49;;;;;;;15.73;8.50;;;15.20;99.40;;;;;;5051389;28;20492;-62
2020/12/31 13:00:17;;;;;;;18.20;8.13;;;15.00;99.10;;;;;;5047684;28;20053;-62
2020/12/31 13:02:45;;;;;;;10.05;4.50;;;15.10;98.60;;;;;;5045369;28;20491;-61